Time;durP1;ratioP1;P1;durP2;ratioP2;P2;SDS_P1;SDS_P2;PMS_P1;PMS_P2;Temp;Humidity;BMP_temperature;BMP_pressure;BME280_temperature;BME280_humidity;BME280_pressure;Samples;Min_cycle;Max_cycle;Signal;HPM_P1;HPM_P2
2024/01/27 00:01:43;;;;;;;16.40;3.55;;;;;;;;;;4981385;28;20054;-71
2024/01/27 00:04:09;;;;;;;20.88;3.17;;;;;;;;;;4983870;28;20086;-71
2024/01/27 00:06:35;;;;;;;18.35;3.13;;;;;;;;;;4979883;28;20046;-70
2024/01/27 00:09:01;;;;;;;19.25;4.20;;;;;;;;;;4985424;28;20050;-69
2024/01/27 00:11:27;;;;;;;21.10;3.78;;;;;;;;;;4972666;28;20051;-72
2024/01/27 00:13:53;;;;;;;25.58;4.35;;;;;;;;;;4980934;28;20042;-71
2024/01/27 00:16:19;;;;;;;18.45;3.50;;;;;;;;;;4981689;28;20046;-71
2024/01/27 00:18:46;;;;;;;20.95;3.92;;;;;;;;;;4980891;28;20579;-71
2024/01/27 00:21:12;;;;;;;17.10;2.97;;;;;;;;;;4986662;28;20053;-70
2024/01/27 00:23:38;;;;;;;14.60;3.38;;;;;;;;;;4983343;28;20046;-70
2024/01/27 00:26:04;;;;;;;25.40;3.75;;;;;;;;;;4982455;28;20571;-71
2024/01/27 00:28:30;;;;;;;16.75;3.33;;;;;;;;;;4984734;28;20090;-71
2024/01/27 00:30:56;;;;;;;17.95;3.83;;;;;;;;;;4973294;28;20042;-71
2024/01/27 00:33:22;;;;;;;12.98;2.97;;;;;;;;;;4981029;28;20499;-71
2024/01/27 00:35:48;;;;;;;22.10;4.68;;;;;;;;;;4984239;28;20046;-71
2024/01/27 00:38:14;;;;;;;15.73;3.13;;;;;;;;;;4980441;28;20050;-71
2024/01/27 00:40:41;;;;;;;22.92;5.47;;;;;;;;;;4999451;28;20038;-71
2024/01/27 00:43:07;;;;;;;16.92;4.03;;;;;;;;;;4980753;28;20050;-71
2024/01/27 00:45:33;;;;;;;10.45;3.38;;;;;;;;;;4979203;28;20082;-71
2024/01/27 00:47:59;;;;;;;18.63;4.03;;;;;;;;;;4981750;28;20058;-71
2024/01/27 00:50:25;;;;;;;16.50;3.47;;;;;;;;;;4985621;28;20913;-71
2024/01/27 00:52:51;;;;;;;19.48;3.40;;;;;;;;;;4982403;28;20065;-69
2024/01/27 00:55:17;;;;;;;14.48;3.35;;;;;;;;;;4983850;28;20053;-69
2024/01/27 00:57:44;;;;;;;16.00;3.88;;;;;;;;;;4983018;28;20092;-71
2024/01/27 01:00:10;;;;;;;19.50;3.92;;;;;;;;;;4982231;28;20208;-71
2024/01/27 01:02:37;;;;;;;23.00;3.45;;;;;;;;;;5003768;28;20041;-71
2024/01/27 01:05:03;;;;;;;12.73;3.50;;;;;;;;;;4982089;28;20055;-71
2024/01/27 01:07:30;;;;;;;18.60;3.33;;;;;;;;;;4982013;28;20050;-71
2024/01/27 01:09:56;;;;;;;19.75;3.08;;;;;;;;;;4985027;28;20054;-71
2024/01/27 01:12:22;;;;;;;17.65;3.90;;;;;;;;;;4981957;28;20496;-71
2024/01/27 01:14:48;;;;;;;17.25;2.92;;;;;;;;;;4982483;28;20047;-71
2024/01/27 01:17:14;;;;;;;14.10;2.85;;;;;;;;;;4983710;28;20057;-71
2024/01/27 01:19:41;;;;;;;10.70;3.30;;;;;;;;;;4983260;28;20042;-71
2024/01/27 01:22:07;;;;;;;13.00;3.25;;;;;;;;;;4980724;28;20528;-71
2024/01/27 01:24:33;;;;;;;18.02;2.97;;;;;;;;;;4975874;28;20538;-71
2024/01/27 01:27:00;;;;;;;18.52;4.25;;;;;;;;;;4978410;28;20046;-70
2024/01/27 01:29:26;;;;;;;13.30;3.28;;;;;;;;;;4984015;28;20179;-71
2024/01/27 01:31:52;;;;;;;11.27;2.58;;;;;;;;;;4984196;28;20060;-71
2024/01/27 01:34:18;;;;;;;22.52;3.47;;;;;;;;;;4979837;28;20096;-69
2024/01/27 01:36:45;;;;;;;12.13;3.28;;;;;;;;;;4985764;28;20067;-71
2024/01/27 01:39:14;;;;;;;18.30;4.50;;;;;;;;;;4977614;28;20866;-71
2024/01/27 01:41:41;;;;;;;16.55;3.40;;;;;;;;;;4982631;28;20475;-71
2024/01/27 01:44:07;;;;;;;12.68;3.45;;;;;;;;;;4977755;28;20959;-71
2024/01/27 01:46:33;;;;;;;13.18;2.70;;;;;;;;;;4984031;28;20058;-71
2024/01/27 01:48:59;;;;;;;12.75;2.80;;;;;;;;;;4974940;28;20078;-71
2024/01/27 01:51:26;;;;;;;14.13;3.30;;;;;;;;;;4978659;28;20054;-71
2024/01/27 01:53:55;;;;;;;22.13;3.80;;;;;;;;;;4983794;28;20042;-71
2024/01/27 01:56:21;;;;;;;14.10;2.97;;;;;;;;;;4981155;28;20062;-71
2024/01/27 01:58:47;;;;;;;8.18;2.83;;;;;;;;;;4977405;28;20677;-71
2024/01/27 02:01:13;;;;;;;13.13;3.63;;;;;;;;;;4999279;28;20057;-71
2024/01/27 02:03:39;;;;;;;21.60;3.10;;;;;;;;;;4983966;28;20140;-70
2024/01/27 02:06:06;;;;;;;15.52;2.83;;;;;;;;;;4997409;28;20049;-71
2024/01/27 02:08:32;;;;;;;16.98;2.67;;;;;;;;;;4977263;28;20050;-71
2024/01/27 02:11:01;;;;;;;19.42;3.55;;;;;;;;;;4985004;28;20055;-71
2024/01/27 02:13:27;;;;;;;20.15;3.70;;;;;;;;;;4994506;28;20051;-71
2024/01/27 02:15:53;;;;;;;17.58;3.13;;;;;;;;;;4981887;28;20572;-71
2024/01/27 02:18:20;;;;;;;15.43;3.08;;;;;;;;;;4976493;28;20872;-71
2024/01/27 02:20:46;;;;;;;15.88;2.65;;;;;;;;;;4975956;28;20039;-71
2024/01/27 02:23:12;;;;;;;10.90;3.47;;;;;;;;;;4982153;28;20054;-71
2024/01/27 02:25:38;;;;;;;13.80;2.88;;;;;;;;;;4979126;28;20034;-70
2024/01/27 02:28:05;;;;;;;14.30;2.90;;;;;;;;;;4979654;28;20501;-70
2024/01/27 02:30:31;;;;;;;20.23;3.38;;;;;;;;;;4980510;28;20480;-70
2024/01/27 02:32:58;;;;;;;15.07;3.40;;;;;;;;;;4983031;28;20047;-71
2024/01/27 02:35:24;;;;;;;13.55;3.08;;;;;;;;;;4979490;28;20482;-71
2024/01/27 02:37:50;;;;;;;21.70;3.58;;;;;;;;;;4983999;28;20488;-69
2024/01/27 02:40:16;;;;;;;21.80;3.03;;;;;;;;;;4986122;28;20161;-70
2024/01/27 02:42:43;;;;;;;15.25;3.05;;;;;;;;;;4988949;28;20058;-71
2024/01/27 02:45:09;;;;;;;12.85;3.00;;;;;;;;;;4988774;28;20116;-71
2024/01/27 02:47:35;;;;;;;12.13;2.88;;;;;;;;;;4987890;28;20105;-70
2024/01/27 02:50:03;;;;;;;12.30;2.92;;;;;;;;;;4986136;28;20282;-70
2024/01/27 02:52:29;;;;;;;12.95;2.50;;;;;;;;;;4988355;28;20463;-72
2024/01/27 02:54:55;;;;;;;16.52;3.25;;;;;;;;;;4988610;28;20064;-68
2024/01/27 02:57:21;;;;;;;14.85;3.17;;;;;;;;;;4990552;28;20042;-70
2024/01/27 02:59:47;;;;;;;17.70;2.78;;;;;;;;;;4992050;28;20046;-71
2024/01/27 03:02:13;;;;;;;14.35;2.88;;;;;;;;;;4984752;28;20452;-71
2024/01/27 03:04:39;;;;;;;12.95;2.63;;;;;;;;;;4987750;28;20042;-71
2024/01/27 03:07:06;;;;;;;16.02;3.63;;;;;;;;;;4988893;28;20061;-69
2024/01/27 03:09:32;;;;;;;18.83;3.53;;;;;;;;;;4989063;28;20191;-71
2024/01/27 03:11:58;;;;;;;13.13;2.83;;;;;;;;;;4983622;28;20149;-71
2024/01/27 03:14:25;;;;;;;9.90;2.80;;;;;;;;;;4984860;28;20157;-71
2024/01/27 03:16:51;;;;;;;16.77;3.30;;;;;;;;;;4983608;28;20105;-68
2024/01/27 03:19:17;;;;;;;22.90;3.65;;;;;;;;;;4993874;28;20042;-71
2024/01/27 03:21:43;;;;;;;9.43;2.55;;;;;;;;;;4989840;28;20489;-71
2024/01/27 03:24:09;;;;;;;14.40;2.83;;;;;;;;;;4986252;28;20069;-71
2024/01/27 03:26:35;;;;;;;18.77;2.55;;;4.20;99.90;;;;;;4977077;28;20079;-71
2024/01/27 03:29:01;;;;;;;11.45;2.78;;;;;;;;;;4991727;28;20053;-71
2024/01/27 03:31:31;;;;;;;21.77;3.17;;;;;;;;;;4992745;28;20062;-71
2024/01/27 03:33:57;;;;;;;16.17;2.85;;;;;;;;;;4974571;28;20407;-72
2024/01/27 03:36:23;;;;;;;14.10;2.55;;;;;;;;;;4990258;28;20042;-71
2024/01/27 03:38:49;;;;;;;15.70;3.05;;;;;;;;;;4982039;28;20166;-71
2024/01/27 03:41:15;;;;;;;11.32;2.38;;;;;;;;;;4991334;28;20817;-72
2024/01/27 03:43:41;;;;;;;13.63;3.03;;;;;;;;;;4987428;28;20065;-70
2024/01/27 03:46:07;;;;;;;20.20;3.15;;;;;;;;;;4988011;28;20058;-71
2024/01/27 03:48:35;;;;;;;17.17;2.95;;;;;;;;;;4975829;28;20053;-71
2024/01/27 03:51:01;;;;;;;11.32;2.97;;;;;;;;;;4982177;28;20054;-71
2024/01/27 03:53:27;;;;;;;13.40;3.25;;;;;;;;;;4983210;28;20046;-69
2024/01/27 03:55:53;;;;;;;12.82;2.92;;;;;;;;;;4979548;28;20077;-71
2024/01/27 03:58:19;;;;;;;17.95;2.80;;;;;;;;;;4980810;28;20141;-71
2024/01/27 04:00:45;;;;;;;17.40;3.20;;;;;;;;;;4980107;28;20085;-71
2024/01/27 04:03:11;;;;;;;15.23;3.83;;;;;;;;;;4984823;28;20398;-71
2024/01/27 04:05:37;;;;;;;18.77;4.10;;;;;;;;;;4974115;28;20120;-70
2024/01/27 04:08:06;;;;;;;15.13;2.97;;;;;;;;;;4985381;28;20101;-71
2024/01/27 04:10:32;;;;;;;15.80;4.13;;;;;;;;;;4982733;28;20089;-71
2024/01/27 04:12:58;;;;;;;19.98;4.68;;;;;;;;;;4985613;28;20767;-71
2024/01/27 04:15:24;;;;;;;15.40;3.80;;;;;;;;;;4982759;28;20046;-70
2024/01/27 04:17:50;;;;;;;20.70;3.42;;;;;;;;;;4980143;28;20042;-71
2024/01/27 04:20:16;;;;;;;18.73;3.90;;;4.20;99.90;;;;;;4982760;28;20052;-71
2024/01/27 04:22:42;;;;;;;22.63;3.80;;;4.20;99.90;;;;;;4984158;28;20861;-71
2024/01/27 04:25:08;;;;;;;8.95;3.10;;;;;;;;;;4983332;28;20042;-70
2024/01/27 04:27:40;;;;;;;21.35;3.63;;;;;;;;;;4978019;28;20045;-71
2024/01/27 04:30:07;;;;;;;20.40;3.92;;;4.10;99.90;;;;;;4972114;28;20579;-71
2024/01/27 04:32:33;;;;;;;17.17;4.20;;;;;;;;;;4975202;28;20477;-68
2024/01/27 04:34:59;;;;;;;20.33;3.90;;;;;;;;;;4983140;28;20069;-71
2024/01/27 04:37:25;;;;;;;14.77;2.78;;;;;;;;;;4981832;28;20408;-71
2024/01/27 04:39:51;;;;;;;9.48;2.88;;;;;;;;;;4982164;28;20050;-70
2024/01/27 04:42:17;;;;;;;20.98;3.45;;;;;;;;;;4979094;28;20059;-71
2024/01/27 04:44:43;;;;;;;14.60;4.43;;;;;;;;;;4977996;28;20508;-69
2024/01/27 04:47:09;;;;;;;23.05;3.75;;;;;;;;;;4977442;28;20394;-71
2024/01/27 04:49:35;;;;;;;22.23;3.83;;;;;;;;;;4988547;28;20057;-71
2024/01/27 04:52:01;;;;;;;14.65;3.03;;;;;;;;;;4979985;28;20054;-71
2024/01/27 04:54:27;;;;;;;14.50;2.80;;;;;;;;;;4979255;28;20046;-71
2024/01/27 04:56:53;;;;;;;13.68;3.42;;;;;;;;;;4986036;28;20089;-69
2024/01/27 04:59:19;;;;;;;15.90;3.83;;;;;;;;;;4982370;28;20116;-71
2024/01/27 05:01:46;;;;;;;18.30;3.17;;;;;;;;;;4983144;28;21250;-71
2024/01/27 05:04:12;;;;;;;14.88;3.20;;;;;;;;;;4983715;28;20058;-70
2024/01/27 05:06:38;;;;;;;19.67;4.68;;;;;;;;;;4983385;28;20477;-72
2024/01/27 05:09:08;;;;;;;14.23;3.60;;;;;;;;;;4981527;28;20039;-71
2024/01/27 05:11:34;;;;;;;12.30;2.80;;;;;;;;;;4983778;28;20042;-68
2024/01/27 05:14:00;;;;;;;17.25;3.63;;;;;;;;;;4978949;28;20097;-71
2024/01/27 05:16:26;;;;;;;16.67;3.90;;;;;;;;;;4981304;28;20109;-71
2024/01/27 05:18:52;;;;;;;17.23;4.13;;;4.00;99.90;;;;;;4982256;28;20126;-71
2024/01/27 05:21:18;;;;;;;15.50;2.92;;;;;;;;;;4983405;28;20125;-71
2024/01/27 05:23:44;;;;;;;21.52;3.47;;;;;;;;;;4979249;28;20054;-70
2024/01/27 05:26:11;;;;;;;13.55;2.80;;;;;;;;;;4977908;28;20058;-69
2024/01/27 05:28:37;;;;;;;20.27;3.13;;;;;;;;;;4980561;28;20126;-71
2024/01/27 05:31:04;;;;;;;17.17;3.22;;;;;;;;;;4981135;28;20046;-72
2024/01/27 05:33:30;;;;;;;19.67;3.95;;;;;;;;;;4970982;28;20058;-71
2024/01/27 05:35:56;;;;;;;9.18;3.03;;;;;;;;;;4974543;28;20050;-71
2024/01/27 05:38:22;;;;;;;22.33;4.03;;;;;;;;;;4974923;28;20076;-70
2024/01/27 05:40:50;;;;;;;14.18;3.28;;;;;;;;;;4982210;28;20092;-70
2024/01/27 05:43:16;;;;;;;6.50;2.80;;;;;;;;;;4978659;28;20165;-71
2024/01/27 05:45:42;;;;;;;10.45;3.25;;;;;;;;;;4979930;28;20054;-69
2024/01/27 05:48:08;;;;;;;18.10;4.05;;;;;;;;;;4984566;28;20500;-71
2024/01/27 05:50:35;;;;;;;19.42;4.03;;;;;;;;;;4980292;28;20046;-71
2024/01/27 05:53:01;;;;;;;17.90;3.45;;;;;;;;;;4982579;28;20050;-72
2024/01/27 05:55:27;;;;;;;17.75;3.92;;;;;;;;;;4978935;28;20688;-72
2024/01/27 05:57:55;;;;;;;24.65;4.20;;;3.70;99.90;;;;;;4980058;28;20513;-72
2024/01/27 06:00:21;;;;;;;20.05;4.07;;;;;;;;;;4980172;28;20050;-71
2024/01/27 06:02:47;;;;;;;13.38;3.63;;;;;;;;;;4984325;28;20042;-71
2024/01/27 06:05:13;;;;;;;15.50;4.32;;;;;;;;;;4979768;28;20055;-70
2024/01/27 06:07:39;;;;;;;17.58;3.53;;;;;;;;;;4977778;28;20050;-70
2024/01/27 06:10:07;;;;;;;18.80;4.40;;;;;;;;;;4976282;28;20057;-70
2024/01/27 06:12:34;;;;;;;15.95;3.55;;;;;;;;;;4976972;28;20046;-71
2024/01/27 06:15:00;;;;;;;19.23;3.60;;;;;;;;;;4980276;28;20093;-70
2024/01/27 06:17:26;;;;;;;20.20;3.47;;;;;;;;;;4983376;28;20053;-70
2024/01/27 06:19:52;;;;;;;18.25;3.95;;;;;;;;;;4978945;28;20042;-71
2024/01/27 06:22:18;;;;;;;22.77;4.03;;;;;;;;;;4973709;28;20484;-68
2024/01/27 06:24:44;;;;;;;14.85;2.97;;;;;;;;;;4980833;28;20050;-72
2024/01/27 06:27:11;;;;;;;14.60;2.67;;;;;;;;;;4996701;28;20050;-71
2024/01/27 06:29:38;;;;;;;17.67;3.75;;;;;;;;;;4983221;28;20520;-71
2024/01/27 06:32:04;;;;;;;23.42;4.78;;;;;;;;;;4982902;28;20054;-71
2024/01/27 06:34:30;;;;;;;17.08;3.80;;;;;;;;;;4972968;28;20046;-71
2024/01/27 06:36:56;;;;;;;16.02;3.13;;;;;;;;;;4980014;28;20105;-70
2024/01/27 06:39:22;;;;;;;24.83;4.07;;;;;;;;;;4980507;28;20049;-71
2024/01/27 06:41:48;;;;;;;24.75;4.20;;;;;;;;;;4980198;28;20149;-72
2024/01/27 06:44:14;;;;;;;19.02;4.25;;;;;;;;;;4978158;28;20504;-71
2024/01/27 06:46:40;;;;;;;13.77;3.47;;;;;;;;;;4974460;28;20038;-71
2024/01/27 06:49:06;;;;;;;16.08;4.10;;;;;;;;;;4980753;28;20079;-68
2024/01/27 06:51:32;;;;;;;15.57;3.25;;;;;;;;;;4969312;28;20046;-71
2024/01/27 06:53:58;;;;;;;16.20;4.03;;;;;;;;;;4968183;28;20050;-71
2024/01/27 06:56:24;;;;;;;24.67;5.97;;;;;;;;;;4995904;28;20038;-71
2024/01/27 06:58:50;;;;;;;13.30;3.40;;;;;;;;;;4983900;28;20045;-71
2024/01/27 07:01:16;;;;;;;21.90;4.10;;;;;;;;;;4981031;28;20047;-71
2024/01/27 07:03:44;;;;;;;17.33;4.93;;;;;;;;;;4983417;28;20461;-68
2024/01/27 07:06:10;;;;;;;17.48;4.13;;;;;;;;;;4979485;28;20059;-71
2024/01/27 07:08:36;;;;;;;24.75;4.47;;;3.80;99.90;;;;;;4978313;28;20057;-72
2024/01/27 07:11:02;;;;;;;12.90;3.22;;;;;;;;;;4979549;28;20522;-71
2024/01/27 07:13:29;;;;;;;13.02;3.80;;;;;;;;;;4980455;28;20070;-71
2024/01/27 07:15:56;;;;;;;18.13;4.72;;;;;;;;;;4982517;28;20057;-71
2024/01/27 07:18:22;;;;;;;18.23;3.80;;;;;;;;;;4975419;28;20149;-69
2024/01/27 07:20:48;;;;;;;14.73;5.95;;;;;;;;;;4979585;28;20770;-71
2024/01/27 07:23:14;;;;;;;21.45;4.85;;;;;;;;;;4980936;28;20042;-70
2024/01/27 07:25:40;;;;;;;17.35;5.32;;;;;;;;;;4983683;28;20046;-72
2024/01/27 07:28:06;;;;;;;23.10;5.55;;;;;;;;;;4980045;28;20133;-71
2024/01/27 07:30:32;;;;;;;13.57;4.82;;;;;;;;;;4980802;28;20365;-70
2024/01/27 07:32:58;;;;;;;14.68;5.20;;;;;;;;;;4983686;28;20053;-72
2024/01/27 07:35:24;;;;;;;22.38;6.10;;;;;;;;;;4980052;28;20062;-70
2024/01/27 07:37:50;;;;;;;19.05;5.35;;;;;;;;;;4982938;28;20782;-71
2024/01/27 07:40:16;;;;;;;17.02;4.90;;;;;;;;;;5000205;28;20137;-71
2024/01/27 07:42:43;;;;;;;16.95;7.60;;;;;;;;;;4974498;28;20054;-71
2024/01/27 07:45:09;;;;;;;16.85;5.80;;;;;;;;;;4982671;28;20058;-71
2024/01/27 07:47:35;;;;;;;19.58;5.45;;;;;;;;;;4982602;28;20089;-71
2024/01/27 07:50:01;;;;;;;19.58;5.97;;;;;;;;;;4987026;28;20046;-71
2024/01/27 07:52:27;;;;;;;19.65;6.43;;;;;;;;;;4983040;28;20043;-72
2024/01/27 07:54:54;;;;;;;21.85;7.03;;;;;;;;;;4985406;28;20051;-70
2024/01/27 07:57:20;;;;;;;22.95;5.80;;;;;;;;;;4984921;28;20070;-71
2024/01/27 07:59:46;;;;;;;21.75;5.88;;;;;;;;;;4983917;28;20049;-71
2024/01/27 08:02:12;;;;;;;14.98;7.18;;;;;;;;;;4983040;28;20043;-71
2024/01/27 08:04:38;;;;;;;18.35;6.78;;;;;;;;;;4989491;28;20674;-69
2024/01/27 08:07:09;;;;;;;22.60;6.45;;;;;;;;;;4983457;28;20078;-71
2024/01/27 08:09:35;;;;;;;17.50;6.70;;;;;;;;;;4981836;28;20065;-71
2024/01/27 08:12:02;;;;;;;20.50;6.80;;;;;;;;;;4983615;28;20138;-71
2024/01/27 08:14:32;;;;;;;25.08;7.55;;;;;;;;;;4981383;28;20686;-72
2024/01/27 08:16:58;;;;;;;27.00;6.88;;;;;;;;;;4988841;28;20045;-71
2024/01/27 08:19:25;;;;;;;15.70;6.45;;;;;;;;;;4985970;28;20861;-72
2024/01/27 08:21:50;;;;;;;26.58;7.88;;;3.90;99.90;;;;;;4982869;28;20039;-72
2024/01/27 08:24:16;;;;;;;17.25;6.50;;;;;;;;;;4983352;28;20104;-71
2024/01/27 08:26:42;;;;;;;18.75;6.75;;;4.10;99.90;;;;;;4981649;28;20073;-72
2024/01/27 08:29:11;;;;;;;22.13;6.70;;;;;;;;;;4981410;28;20042;-72
2024/01/27 08:31:38;;;;;;;27.25;6.72;;;;;;;;;;4983538;28;20149;-72
2024/01/27 08:34:04;;;;;;;18.10;7.53;;;;;;;;;;4975399;28;20054;-71
2024/01/27 08:36:31;;;;;;;17.63;5.93;;;;;;;;;;4977505;28;20624;-72
2024/01/27 08:38:57;;;;;;;15.23;6.90;;;;;;;;;;4978717;28;20049;-72
2024/01/27 08:41:23;;;;;;;23.00;6.40;;;;;;;;;;4979296;28;20038;-72
2024/01/27 08:43:49;;;;;;;18.27;6.82;;;;;;;;;;4996150;28;20092;-72
2024/01/27 08:46:17;;;;;;;21.70;6.30;;;;;;;;;;4984527;28;20141;-72
2024/01/27 08:48:43;;;;;;;19.95;6.68;;;;;;;;;;4985363;28;20107;-72
2024/01/27 08:51:10;;;;;;;15.20;5.50;;;;;;;;;;4980954;28;20038;-71
2024/01/27 08:53:36;;;;;;;19.25;5.97;;;;;;;;;;4983025;28;20062;-72
2024/01/27 08:56:02;;;;;;;18.65;6.60;;;;;;;;;;4984708;28;20093;-72
2024/01/27 08:58:28;;;;;;;15.85;5.65;;;;;;;;;;4987612;28;20034;-72
2024/01/27 09:00:54;;;;;;;17.92;6.47;;;;;;;;;;4975649;28;20665;-72
2024/01/27 09:03:20;;;;;;;23.45;6.50;;;;;;;;;;5000901;28;20049;-72
2024/01/27 09:05:47;;;;;;;22.65;6.55;;;;;;;;;;4984676;28;20050;-72
2024/01/27 09:08:13;;;;;;;22.38;6.47;;;;;;;;;;4984670;28;20046;-72
2024/01/27 09:10:38;;;;;;;20.50;6.78;;;5.70;99.90;;;;;;4984538;28;20126;-72
2024/01/27 09:13:04;;;;;;;19.67;5.85;;;;;;;;;;4986459;28;20991;-70
2024/01/27 09:15:31;;;;;;;17.00;6.25;;;;;;;;;;4985731;28;20117;-72
2024/01/27 09:17:57;;;;;;;19.45;6.35;;;;;;;;;;4986220;28;20054;-72
2024/01/27 09:20:23;;;;;;;19.75;8.00;;;;;;;;;;4977693;28;20042;-71
2024/01/27 09:22:50;;;;;;;19.67;5.32;;;;;;;;;;4983937;28;20046;-72
2024/01/27 09:25:16;;;;;;;17.55;5.90;;;;;;;;;;4984643;28;20076;-72
2024/01/27 09:27:42;;;;;;;21.85;6.65;;;;;;;;;;4981231;28;20031;-72
2024/01/27 09:30:09;;;;;;;22.35;5.75;;;;;;;;;;4982539;28;20042;-72
2024/01/27 09:32:35;;;;;;;22.15;6.60;;;;;;;;;;4983888;28;20045;-72
2024/01/27 09:35:01;;;;;;;23.83;6.18;;;;;;;;;;4983799;28;20046;-71
2024/01/27 09:37:27;;;;;;;19.35;6.13;;;;;;;;;;4984679;28;20716;-73
2024/01/27 09:39:53;;;;;;;15.13;5.95;;;;;;;;;;4981870;28;20037;-72
2024/01/27 09:42:21;;;;;;;15.27;5.55;;;;;;;;;;4976485;28;20058;-72
2024/01/27 09:44:49;;;;;;;18.90;6.50;;;7.30;99.90;;;;;;4976106;28;20117;-72
2024/01/27 09:47:15;;;;;;;17.38;6.65;;;7.50;99.90;;;;;;4983369;28;20044;-72
2024/01/27 09:49:42;;;;;;;24.77;6.47;;;;;;;;;;4975679;28;20051;-72
2024/01/27 09:52:08;;;;;;;19.42;6.03;;;7.60;99.90;;;;;;4976032;28;20057;-72
2024/01/27 09:54:36;;;;;;;12.90;5.45;;;7.70;99.90;;;;;;4983441;28;20072;-73
2024/01/27 09:57:02;;;;;;;24.10;6.72;;;;;;;;;;4984883;28;20046;-70
2024/01/27 09:59:29;;;;;;;17.40;5.95;;;7.70;99.90;;;;;;4981960;28;20053;-72
2024/01/27 10:01:56;;;;;;;16.88;6.45;;;;;;;;;;4987438;28;20050;-68
2024/01/27 10:04:23;;;;;;;18.70;6.20;;;;;;;;;;4972882;28;20057;-68
2024/01/27 10:06:50;;;;;;;17.83;6.40;;;7.80;99.90;;;;;;4980003;28;20120;-68
2024/01/27 10:09:16;;;;;;;18.58;6.28;;;7.80;99.90;;;;;;4976455;28;20145;-68
2024/01/27 10:11:45;;;;;;;20.83;6.47;;;;;;;;;;4977342;28;20038;-69
2024/01/27 10:14:12;;;;;;;19.10;5.90;;;;;;;;;;4984635;28;20105;-66
2024/01/27 10:16:42;;;;;;;17.90;6.45;;;;;;;;;;4976939;28;20137;-68
2024/01/27 10:19:12;;;;;;;19.38;7.57;;;;;;;;;;4982959;28;20081;-69
2024/01/27 10:21:38;;;;;;;13.93;5.93;;;;;;;;;;4980546;28;20048;-69
2024/01/27 10:24:06;;;;;;;16.90;6.22;;;;;;;;;;4981877;28;20053;-69
2024/01/27 10:26:33;;;;;;;21.55;6.80;;;;;;;;;;4981793;28;20082;-67
2024/01/27 10:28:59;;;;;;;19.67;5.93;;;;;;;;;;4976666;28;20046;-69
2024/01/27 10:31:28;;;;;;;19.92;6.22;;;7.80;99.90;;;;;;4983211;28;20042;-70
2024/01/27 10:33:59;;;;;;;27.92;6.60;;;7.90;99.90;;;;;;4982536;28;20166;-70
2024/01/27 10:36:28;;;;;;;18.67;6.75;;;7.90;99.90;;;;;;4983503;28;20042;-69
2024/01/27 10:38:54;;;;;;;19.73;7.40;;;;;;;;;;4973234;28;20443;-69
2024/01/27 10:41:23;;;;;;;21.63;7.80;;;;;;;;;;4997607;28;20038;-69
2024/01/27 10:43:52;;;;;;;23.70;6.55;;;7.80;99.90;;;;;;4981466;28;20056;-69
2024/01/27 10:46:21;;;;;;;17.88;6.65;;;8.10;99.90;;;;;;4981353;28;20121;-68
2024/01/27 10:48:53;;;;;;;23.15;6.53;;;7.90;99.90;;;;;;4981288;28;20047;-69
2024/01/27 10:51:31;;;;;;;19.05;6.00;;;8.20;99.90;;;;;;4973439;28;20508;-68
2024/01/27 10:54:03;;;;;;;23.02;5.82;;;8.30;99.90;;;;;;4981657;28;20053;-69
2024/01/27 10:56:33;;;;;;;17.35;6.13;;;;;;;;;;4981021;28;20038;-70
2024/01/27 10:58:59;;;;;;;23.25;5.75;;;8.20;99.90;;;;;;4977923;28;20046;-68
2024/01/27 11:01:27;;;;;;;16.95;5.55;;;8.30;99.90;;;;;;4983484;28;20578;-68
2024/01/27 11:03:55;;;;;;;15.32;4.65;;;8.20;99.90;;;;;;4981711;28;20077;-69
2024/01/27 11:06:22;;;;;;;22.77;5.90;;;8.20;99.90;;;;;;4985707;28;20065;-68
2024/01/27 11:08:52;;;;;;;23.23;6.03;;;8.50;99.90;;;;;;4986558;28;20049;-69
2024/01/27 11:11:19;;;;;;;17.65;5.57;;;;;;;;;;4983541;28;20038;-69
2024/01/27 11:13:48;;;;;;;12.40;5.50;;;;;;;;;;4979994;28;20046;-69
2024/01/27 11:16:18;;;;;;;17.98;5.55;;;8.50;99.90;;;;;;4982331;28;20052;-69
2024/01/27 11:18:44;;;;;;;15.48;5.85;;;;;;;;;;4986872;28;20046;-68
2024/01/27 11:21:17;;;;;;;14.00;5.55;;;;;;;;;;4986060;28;20038;-69
2024/01/27 11:23:44;;;;;;;19.67;6.28;;;;;;;;;;4984791;28;20038;-70
2024/01/27 11:26:14;;;;;;;19.30;5.22;;;8.50;99.90;;;;;;4985692;28;20100;-70
2024/01/27 11:28:40;;;;;;;19.25;5.47;;;8.30;99.90;;;;;;4981560;28;20074;-70
2024/01/27 11:31:07;;;;;;;17.95;5.63;;;;;;;;;;4984063;28;20114;-69
2024/01/27 11:33:33;;;;;;;24.13;5.90;;;;;;;;;;4983317;28;20050;-70
2024/01/27 11:36:04;;;;;;;15.52;5.57;;;;;;;;;;4981968;28;20038;-70
2024/01/27 11:38:31;;;;;;;18.67;5.80;;;8.70;99.90;;;;;;4983136;28;20050;-70
2024/01/27 11:40:57;;;;;;;18.42;5.68;;;8.70;99.90;;;;;;4980674;28;20038;-70
2024/01/27 11:43:23;;;;;;;18.50;5.75;;;;;;;;;;4978610;28;20112;-69
2024/01/27 11:45:56;;;;;;;20.80;5.38;;;8.70;99.90;;;;;;4975291;28;20097;-67
2024/01/27 11:48:22;;;;;;;19.15;6.50;;;8.80;99.90;;;;;;4985229;28;20046;-70
2024/01/27 11:50:48;;;;;;;20.20;6.60;;;;;;;;;;4981444;28;20042;-70
2024/01/27 11:53:14;;;;;;;20.25;5.85;;;;;;;;;;4982299;28;20045;-70
2024/01/27 11:55:40;;;;;;;20.73;5.78;;;8.90;99.90;;;;;;4984550;28;20042;-70
2024/01/27 11:58:06;;;;;;;18.00;6.18;;;;;;;;;;4982372;28;20074;-69
2024/01/27 12:00:32;;;;;;;14.60;5.35;;;;;;;;;;4986510;28;20108;-69
2024/01/27 12:02:58;;;;;;;16.33;5.15;;;9.20;99.90;;;;;;4984066;28;20048;-69
2024/01/27 12:05:24;;;;;;;16.63;5.32;;;;;;;;;;4982758;28;20053;-69
2024/01/27 12:07:51;;;;;;;18.98;4.97;;;;;;;;;;4978854;28;20057;-68
2024/01/27 12:10:17;;;;;;;16.63;4.90;;;;;;;;;;4977695;28;20065;-69
2024/01/27 12:12:43;;;;;;;14.25;4.80;;;;;;;;;;4981691;28;20066;-68
2024/01/27 12:15:09;;;;;;;21.60;6.00;;;;;;;;;;4985024;28;20883;-68
2024/01/27 12:17:35;;;;;;;20.52;5.63;;;;;;;;;;4998773;28;20047;-68
2024/01/27 12:20:01;;;;;;;19.67;5.60;;;9.10;99.90;;;;;;4977707;28;20078;-68
2024/01/27 12:22:29;;;;;;;18.00;5.05;;;9.00;99.90;;;;;;4980676;28;20137;-66
2024/01/27 12:25:09;;;;;;;17.73;4.90;;;;;;;;;;4983525;28;20467;-69
2024/01/27 12:27:35;;;;;;;19.83;4.85;;;;;;;;;;4982871;28;20050;-67
2024/01/27 12:30:02;;;;;;;13.70;4.60;;;9.30;99.90;;;;;;4982786;28;20100;-68
2024/01/27 12:32:28;;;;;;;25.40;6.00;;;;;;;;;;4981480;28;20038;-69
2024/01/27 12:34:53;;;;;;;18.58;5.68;;;9.20;99.90;;;;;;4981035;28;20097;-69
2024/01/27 12:37:22;;;;;;;21.90;5.03;;;9.50;99.90;;;;;;4980841;28;20141;-67
2024/01/27 12:39:50;;;;;;;21.05;5.20;;;;;;;;;;4979037;28;20096;-68
2024/01/27 12:42:17;;;;;;;18.85;5.88;;;9.30;99.90;;;;;;4982889;28;20066;-70
2024/01/27 12:44:43;;;;;;;23.67;5.78;;;9.10;99.90;;;;;;4983956;28;20103;-69
2024/01/27 12:47:10;;;;;;;22.00;5.03;;;9.30;99.90;;;;;;4982684;28;20050;-69
2024/01/27 12:49:36;;;;;;;14.70;5.05;;;;;;;;;;4981148;28;20046;-68
2024/01/27 12:52:02;;;;;;;18.58;7.38;;;;;;;;;;4978244;28;20080;-69
2024/01/27 12:54:28;;;;;;;15.10;4.78;;;;;;;;;;4977958;28;20055;-70
2024/01/27 12:56:55;;;;;;;16.30;5.25;;;9.60;99.90;;;;;;4982860;28;20038;-69
2024/01/27 12:59:23;;;;;;;17.02;4.80;;;;;;;;;;4998753;28;20404;-68
2024/01/27 13:01:48;;;;;;;21.88;6.35;;;;;;;;;;4984057;28;20069;-69
2024/01/27 13:04:14;;;;;;;17.92;5.13;;;9.60;99.90;;;;;;4982268;28;20054;-70
2024/01/27 13:06:41;;;;;;;15.07;5.28;;;;;;;;;;4981704;28;20696;-68
2024/01/27 13:09:07;;;;;;;17.50;4.85;;;;;;;;;;4983546;28;20081;-69
2024/01/27 13:11:33;;;;;;;22.55;6.15;;;9.60;99.90;;;;;;4981829;28;20057;-69
2024/01/27 13:13:59;;;;;;;20.65;6.45;;;;;;;;;;4982398;28;20083;-70
2024/01/27 13:16:24;;;;;;;24.38;6.22;;;9.70;99.90;;;;;;4979399;28;20046;-69
2024/01/27 13:18:50;;;;;;;18.40;5.63;;;;;;;;;;4981832;28;20042;-70
2024/01/27 13:21:16;;;;;;;17.42;4.93;;;;;;;;;;4972558;28;20058;-67
2024/01/27 13:23:42;;;;;;;20.92;5.88;;;9.40;99.90;;;;;;4981936;28;20064;-69
2024/01/27 13:26:08;;;;;;;17.38;5.65;;;;;;;;;;4979687;28;20038;-69
2024/01/27 13:28:34;;;;;;;22.65;6.20;;;;;;;;;;4980410;28;20585;-69
2024/01/27 13:31:00;;;;;;;22.42;6.25;;;9.60;99.90;;;;;;4977601;28;20081;-69
2024/01/27 13:33:28;;;;;;;24.70;8.38;;;;;;;;;;4972989;28;20074;-69
2024/01/27 13:35:54;;;;;;;25.00;8.10;;;;;;;;;;4979669;28;20159;-68
2024/01/27 13:38:23;;;;;;;30.88;9.40;;;;;;;;;;4980645;28;20066;-68
2024/01/27 13:40:49;;;;;;;21.98;8.10;;;9.50;99.90;;;;;;4974882;28;20057;-68
2024/01/27 13:43:15;;;;;;;22.30;8.00;;;9.40;99.90;;;;;;4983431;28;20054;-69
2024/01/27 13:45:41;;;;;;;31.17;9.68;;;;;;;;;;4982248;28;20050;-69
2024/01/27 13:48:07;;;;;;;24.75;6.82;;;9.50;99.90;;;;;;4999250;28;20408;-67
2024/01/27 13:50:33;;;;;;;22.27;6.35;;;;;;;;;;4982725;28;20038;-66
2024/01/27 13:52:59;;;;;;;22.38;5.78;;;9.10;99.90;;;;;;4975082;28;20042;-69
2024/01/27 13:55:25;;;;;;;19.77;5.97;;;;;;;;;;4979947;28;20042;-68
2024/01/27 13:57:51;;;;;;;27.42;5.72;;;;;;;;;;4977141;28;20047;-67
2024/01/27 14:00:17;;;;;;;20.27;6.45;;;;;;;;;;4980276;28;20050;-66
2024/01/27 14:02:43;;;;;;;19.88;6.05;;;9.00;99.90;;;;;;4980042;28;20043;-69
2024/01/27 14:05:09;;;;;;;23.25;5.63;;;8.90;99.90;;;;;;4977630;28;20038;-70
2024/01/27 14:07:36;;;;;;;17.58;5.30;;;;;;;;;;4978982;28;20046;-68